EA4DB Madrid ES current weather conditions

sailwx.info

Wind from 270 at 1 knots gusting 7

Air temperature 26.7° C
Dewpoint 16.0° C

Last reported at 2019-Aug-20 19:20 UTC.
Time now 2019-Aug-21 01:27 UTC

Location: N 40°25' W 003°39'.
View on Google Maps.

See reports from other nearby stations

  
Tides and Currents Weather Stations Pressure Air Temp Water Temp Dewpoint Dewpoint Depression Visibility Wind Speed Wind Dir Waves Ship Positions
date/time (UTC)wind fromknots sea level pressurealtimeterstation pressurevisibilityair tempwater tempwave heightnotes
2019-Aug-20 19:20 270 1 gusting 7 26.7
2019-Aug-20 19:10 090 4 gusting 7 26.7
2019-Aug-20 19:00 180 1 gusting 4 27.2
2019-Aug-20 18:50 27.8
2019-Aug-20 18:40 270 2 gusting 4 28.9
2019-Aug-20 18:30 29.4
2019-Aug-20 18:20 270 2 gusting 5 29.4
2019-Aug-20 18:10 090 2 gusting 5 29.4
2019-Aug-20 18:00 30.0
2019-Aug-20 17:50 090 2 gusting 5 30.6
2019-Aug-20 17:40 270 4 gusting 7 31.7
2019-Aug-20 17:30 315 2 gusting 5 31.1
2019-Aug-20 17:20 315 2 gusting 5 31.7
2019-Aug-20 17:10 270 4 gusting 7 32.2
2019-Aug-20 17:00 315 0 gusting 2 32.2
2019-Aug-20 16:50 32.2
2019-Aug-20 06:15 20.6
2019-Aug-20 06:05 315 0 gusting 2 20.6
2019-Aug-20 05:55 315 2 gusting 3 21.1
2019-Aug-20 05:45 090 2 gusting 5 21.1
2019-Aug-20 05:35 270 0 gusting 3 20.6
2019-Aug-20 05:25 20.6
2019-Aug-20 05:15 270 0 gusting 2 20.6
2019-Aug-20 05:05 315 2 gusting 5 20.0
2019-Aug-20 04:55 090 1 gusting 4 20.6
2019-Aug-20 04:45 20.0
2019-Aug-20 04:35 20.6
2019-Aug-20 04:25 270 2 gusting 5 20.6
2019-Aug-20 04:15 315 1 gusting 3 20.6
2019-Aug-20 04:05 270 3 gusting 6 20.6
2019-Aug-20 03:55 315 4 gusting 7 20.6
2019-Aug-19 17:25 202 5 gusting 7 31.1
2019-Aug-19 17:15 225 7 gusting 11 31.1
2019-Aug-19 17:05 315 5 gusting 10 31.7
2019-Aug-19 16:55 315 1 gusting 2 32.2
2019-Aug-19 16:45 270 2 gusting 4 32.2
2019-Aug-19 16:35 315 5 gusting 10 32.8
2019-Aug-19 16:25 270 2 gusting 7 33.3
2019-Aug-19 16:15 270 5 gusting 9 32.8
2019-Aug-19 16:05 225 3 gusting 6 32.8
2019-Aug-19 15:55 315 2 gusting 6 32.8
2019-Aug-19 15:45 315 3 gusting 6 32.8
2019-Aug-19 15:35 225 32.8
2019-Aug-19 15:25 315 2 gusting 7 32.8
2019-Aug-19 15:15 315 5 gusting 7 32.2
2019-Aug-19 15:05 225 7 gusting 11 32.8
2019-Aug-19 14:55 135 2 gusting 6 33.9
2019-Aug-19 06:00 22.2
2019-Aug-19 05:50 22.8
2019-Aug-19 05:40 22.8
2019-Aug-19 05:30 180 0 gusting 2 22.2
2019-Aug-19 05:20 22.2
2019-Aug-19 05:10 315 22.2
2019-Aug-19 05:00 22.2
2019-Aug-19 04:50 090 22.2